createdAt,value
2022-11-28T00:02:19.199Z,13.88
2022-11-28T00:04:42.606Z,9.93
2022-11-28T00:07:07.870Z,11.38
2022-11-28T00:09:31.563Z,11.77
2022-11-28T00:11:55.012Z,10.45
2022-11-28T00:14:20.440Z,11.52
2022-11-28T00:16:44.215Z,10.63
2022-11-28T00:19:08.069Z,10.63
2022-11-28T00:21:32.114Z,11.10
2022-11-28T00:23:56.929Z,13.25
2022-11-28T00:26:23.802Z,11.45
2022-11-28T00:28:47.432Z,11.80
2022-11-28T00:31:15.005Z,10.57
2022-11-28T00:33:38.445Z,10.25
2022-11-28T00:36:03.097Z,11.00
2022-11-28T00:38:26.418Z,9.38
2022-11-28T00:40:59.764Z,10.40
2022-11-28T00:43:23.024Z,10.27
2022-11-28T00:45:46.336Z,10.20
2022-11-28T00:48:09.675Z,10.98
2022-11-28T00:50:32.910Z,11.50
2022-11-28T00:52:56.162Z,11.32
2022-11-28T00:55:19.604Z,9.35
2022-11-28T00:57:44.204Z,11.40
2022-11-28T01:00:10.136Z,10.32
2022-11-28T01:02:34.121Z,9.48
2022-11-28T01:04:57.447Z,12.93
2022-11-28T01:07:20.814Z,11.02
2022-11-28T01:09:44.179Z,12.88
2022-11-28T01:12:07.797Z,9.38
2022-11-28T01:14:32.528Z,12.25
2022-11-28T01:16:55.778Z,9.95
2022-11-28T01:19:19.939Z,12.23
2022-11-28T01:21:43.671Z,11.18
2022-11-28T01:24:07.622Z,9.70
2022-11-28T01:26:31.866Z,9.68
2022-11-28T01:28:56.061Z,9.35
2022-11-28T01:31:24.468Z,10.68
2022-11-28T01:33:48.184Z,11.88
2022-11-28T01:36:12.724Z,11.82
2022-11-28T01:38:36.335Z,10.18
2022-11-28T01:41:00.041Z,11.27
2022-11-28T01:43:24.469Z,12.57
2022-11-28T01:45:48.042Z,10.32
2022-11-28T01:48:17.123Z,10.07
2022-11-28T01:50:41.049Z,11.10
2022-11-28T01:53:09.874Z,9.65
2022-11-28T01:55:40.390Z,11.07
2022-11-28T01:58:03.865Z,12.68
2022-11-28T02:00:27.245Z,12.52
2022-11-28T02:02:54.053Z,12.30
2022-11-28T02:05:21.998Z,11.90
2022-11-28T02:07:45.983Z,10.32
2022-11-28T02:10:13.686Z,8.98
2022-11-28T02:13:02.434Z,11.07
2022-11-28T02:15:50.647Z,10.35
2022-11-28T02:18:32.285Z,11.57
2022-11-28T02:21:25.143Z,11.70
2022-11-28T02:24:41.383Z,10.75
2022-11-28T02:27:59.366Z,11.80
2022-11-28T02:30:25.813Z,13.23
2022-11-28T02:33:16.275Z,12.13
2022-11-28T02:35:49.319Z,10.95
2022-11-28T02:38:24.056Z,11.35
2022-11-28T02:41:00.894Z,11.98
2022-11-28T02:43:32.813Z,12.35
2022-11-28T02:46:04.525Z,14.32
2022-11-28T02:48:38.939Z,13.80
2022-11-28T02:51:08.258Z,12.40
2022-11-28T02:53:34.133Z,12.63
2022-11-28T02:55:59.245Z,16.02
2022-11-28T02:58:22.513Z,10.93
2022-11-28T03:00:50.361Z,17.13
2022-11-28T03:03:39.552Z,13.00
2022-11-28T03:06:12.200Z,13.07
2022-11-28T03:08:53.680Z,14.57
2022-11-28T03:11:24.484Z,15.02
2022-11-28T03:13:56.061Z,14.35
2022-11-28T03:16:28.500Z,12.68
2022-11-28T03:19:03.065Z,14.63
2022-11-28T03:21:39.602Z,15.50
2022-11-28T03:24:08.234Z,12.98
2022-11-28T03:26:43.680Z,14.50
2022-11-28T03:29:14.734Z,12.07
2022-11-28T03:31:42.877Z,15.75
2022-11-28T03:34:11.816Z,12.00
2022-11-28T03:36:41.445Z,14.90
2022-11-28T03:39:11.064Z,12.63
2022-11-28T03:41:38.885Z,13.55
2022-11-28T03:44:03.348Z,13.63
2022-11-28T03:46:36.023Z,14.70
2022-11-28T03:49:01.904Z,15.27
2022-11-28T03:51:32.189Z,15.00
2022-11-28T03:54:01.028Z,13.02
2022-11-28T03:56:31.909Z,14.95
2022-11-28T03:59:01.105Z,14.80
2022-11-28T04:01:33.416Z,13.15
2022-11-28T04:04:04.703Z,13.68
2022-11-28T04:06:37.050Z,14.95
2022-11-28T04:09:10.184Z,13.05
2022-11-28T04:11:44.502Z,16.77
2022-11-28T04:14:14.386Z,15.77
2022-11-28T04:16:42.132Z,16.13
2022-11-28T04:19:14.157Z,18.17
2022-11-28T04:21:45.807Z,14.80
2022-11-28T04:24:15.551Z,17.25
2022-11-28T04:26:42.665Z,13.35
2022-11-28T04:29:11.845Z,18.60
2022-11-28T04:31:36.415Z,15.05
2022-11-28T04:34:05.060Z,12.48
2022-11-28T04:36:30.355Z,13.48
2022-11-28T04:38:58.203Z,13.63
2022-11-28T04:41:25.927Z,13.77
2022-11-28T04:43:54.337Z,16.10
2022-11-28T04:46:25.083Z,14.60
2022-11-28T04:48:48.719Z,15.95
2022-11-28T04:51:20.919Z,13.35
2022-11-28T04:53:51.149Z,21.25
2022-11-28T04:56:21.698Z,15.57
2022-11-28T04:58:49.498Z,18.50
2022-11-28T05:01:20.479Z,15.18
2022-11-28T05:03:44.439Z,17.98
2022-11-28T05:06:09.071Z,15.32
2022-11-28T05:08:32.682Z,18.63
2022-11-28T05:10:56.250Z,18.45
2022-11-28T05:13:21.305Z,17.25
2022-11-28T05:15:44.591Z,15.57
2022-11-28T05:18:08.344Z,16.33
2022-11-28T05:20:32.086Z,13.50
2022-11-28T05:22:55.367Z,17.45
2022-11-28T05:25:18.855Z,16.58
2022-11-28T05:27:42.348Z,15.70
2022-11-28T05:30:09.127Z,16.17
2022-11-28T05:32:33.201Z,17.90
2022-11-28T05:34:56.539Z,16.08
2022-11-28T05:37:19.960Z,19.73
2022-11-28T05:39:43.300Z,17.00
2022-11-28T05:42:07.317Z,20.27
2022-11-28T05:44:30.601Z,15.85
2022-11-28T05:46:55.543Z,19.70
2022-11-28T05:49:20.901Z,17.90
2022-11-28T05:51:44.300Z,16.77
2022-11-28T05:54:07.977Z,15.68
2022-11-28T05:56:31.359Z,16.17
2022-11-28T05:58:54.958Z,15.77
2022-11-28T06:01:20.286Z,17.88
2022-11-28T06:03:45.659Z,15.35
2022-11-28T06:06:14.237Z,17.17
2022-11-28T06:08:37.485Z,16.23
2022-11-28T06:11:01.088Z,16.52
2022-11-28T06:13:24.392Z,15.38
2022-11-28T06:15:47.634Z,14.55
2022-11-28T06:18:11.517Z,18.30
2022-11-28T06:20:37.532Z,15.90
2022-11-28T06:23:00.919Z,18.10
2022-11-28T06:25:24.194Z,14.88
2022-11-28T06:27:47.428Z,14.27
2022-11-28T06:30:11.338Z,19.23
2022-11-28T06:32:34.686Z,15.65
2022-11-28T06:34:57.936Z,12.70
2022-11-28T06:37:22.885Z,16.27
2022-11-28T06:39:46.402Z,16.52
2022-11-28T06:42:09.721Z,14.68
2022-11-28T06:44:33.084Z,16.55
2022-11-28T06:46:56.378Z,13.82
2022-11-28T06:49:19.678Z,17.05
2022-11-28T06:51:45.792Z,16.70
2022-11-28T06:54:10.793Z,15.43
2022-11-28T06:56:34.438Z,17.40
2022-11-28T06:58:59.580Z,16.10
2022-11-28T07:01:26.743Z,17.33
2022-11-28T07:03:50.697Z,16.17
2022-11-28T07:06:15.793Z,21.67
2022-11-28T07:08:39.652Z,19.80
2022-11-28T07:11:12.630Z,17.40
2022-11-28T07:13:35.937Z,16.60
2022-11-28T07:15:59.162Z,24.38
2022-11-28T07:18:22.492Z,19.80
2022-11-28T07:20:45.707Z,17.05
2022-11-28T07:23:09.019Z,20.88
2022-11-28T07:25:32.623Z,16.67
2022-11-28T07:27:57.261Z,17.90
2022-11-28T07:30:21.071Z,17.48
2022-11-28T07:32:44.369Z,17.90
2022-11-28T07:35:09.197Z,19.27
2022-11-28T07:37:32.783Z,20.83
2022-11-28T07:39:56.081Z,18.10
2022-11-28T07:42:19.481Z,16.38
2022-11-28T07:45:00.789Z,18.33
2022-11-28T07:47:24.549Z,20.73
2022-11-28T07:49:47.778Z,19.00
2022-11-28T07:52:11.214Z,17.33
2022-11-28T07:54:34.481Z,18.98
2022-11-28T07:57:12.003Z,17.42
2022-11-28T07:59:36.491Z,16.65
2022-11-28T08:02:01.244Z,16.13
2022-11-28T08:04:24.698Z,15.48
2022-11-28T08:06:48.033Z,15.75
2022-11-28T08:09:12.713Z,14.95
2022-11-28T08:11:36.635Z,18.08
2022-11-28T08:14:00.143Z,17.40
2022-11-28T08:16:25.248Z,16.75
2022-11-28T08:18:52.398Z,15.10
2022-11-28T08:21:18.607Z,17.75
2022-11-28T08:23:42.520Z,16.88
2022-11-28T08:26:07.856Z,21.60
2022-11-28T08:28:31.913Z,15.20
2022-11-28T08:30:56.712Z,15.27
2022-11-28T08:33:20.234Z,16.20
2022-11-28T08:35:44.872Z,16.25
2022-11-28T08:38:08.098Z,17.08
2022-11-28T08:40:31.488Z,15.90
2022-11-28T08:42:54.780Z,16.63
2022-11-28T08:45:18.264Z,16.67
2022-11-28T08:47:41.498Z,18.58
2022-11-28T08:50:08.940Z,15.52
2022-11-28T08:52:34.622Z,16.23
2022-11-28T08:54:57.921Z,19.80
2022-11-28T08:57:21.142Z,20.58
2022-11-28T08:59:44.688Z,19.02
2022-11-28T09:02:10.234Z,21.05
2022-11-28T09:04:33.619Z,17.55
2022-11-28T09:06:56.858Z,16.13
2022-11-28T09:09:21.830Z,18.63
2022-11-28T09:11:45.364Z,16.73
2022-11-28T09:14:09.183Z,16.10
2022-11-28T09:16:32.527Z,16.65
2022-11-28T09:18:57.435Z,17.48
2022-11-28T09:21:20.777Z,17.83
2022-11-28T09:23:45.797Z,19.38
2022-11-28T09:26:11.932Z,16.73
2022-11-28T09:28:35.225Z,15.40
2022-11-28T09:31:02.662Z,19.92
2022-11-28T09:33:26.115Z,16.95
2022-11-28T09:35:49.434Z,17.63
2022-11-28T09:38:12.711Z,16.27
2022-11-28T09:40:39.376Z,21.55
2022-11-28T09:43:05.738Z,18.05
2022-11-28T09:45:29.010Z,14.88
2022-11-28T09:47:57.747Z,20.88
2022-11-28T09:50:24.933Z,22.63
2022-11-28T09:52:55.137Z,20.42
2022-11-28T09:55:29.214Z,21.00
2022-11-28T09:57:54.703Z,19.38
2022-11-28T10:00:22.768Z,25.25
2022-11-28T10:03:09.844Z,19.38
2022-11-28T10:05:39.128Z,19.45
2022-11-28T10:08:20.093Z,20.80
2022-11-28T10:10:56.147Z,23.90
2022-11-28T10:13:29.669Z,18.90
2022-11-28T10:16:07.637Z,22.70
2022-11-28T10:18:39.668Z,21.50
2022-11-28T10:21:09.879Z,20.65
2022-11-28T10:23:40.884Z,22.95
2022-11-28T10:26:09.333Z,22.58
2022-11-28T10:28:36.333Z,22.15
2022-11-28T10:31:07.014Z,22.52
2022-11-28T10:33:35.596Z,21.23
2022-11-28T10:36:01.254Z,26.33
2022-11-28T10:38:28.540Z,21.60
2022-11-28T10:40:59.921Z,23.55
2022-11-28T10:43:33.618Z,27.02
2022-11-28T10:46:10.469Z,20.88
2022-11-28T10:48:47.693Z,21.25
2022-11-28T10:51:30.838Z,25.17
2022-11-28T10:54:11.372Z,24.67
2022-11-28T10:56:44.936Z,27.27
2022-11-28T10:59:22.185Z,26.10
2022-11-28T11:01:50.357Z,26.73
2022-11-28T11:04:20.615Z,29.45
2022-11-28T11:07:06.940Z,23.85
2022-11-28T11:09:27.465Z,24.90
2022-11-28T11:12:00.839Z,26.65
2022-11-28T11:14:36.081Z,28.02
2022-11-28T11:17:00.869Z,22.92
2022-11-28T11:19:29.913Z,27.02
2022-11-28T11:22:04.417Z,27.08
2022-11-28T11:24:27.971Z,23.98
2022-11-28T11:26:51.428Z,20.42
2022-11-28T11:29:25.706Z,24.42
2022-11-28T11:31:53.156Z,19.45
2022-11-28T11:34:21.261Z,21.58
2022-11-28T11:36:44.621Z,19.58
2022-11-28T11:39:20.308Z,22.70
2022-11-28T11:41:45.931Z,24.10
2022-11-28T11:44:34.117Z,24.92
2022-11-28T11:47:01.769Z,22.05
2022-11-28T11:49:36.009Z,21.45
2022-11-28T11:52:02.127Z,18.67
2022-11-28T11:54:25.445Z,24.98
2022-11-28T11:57:05.761Z,21.70
2022-11-28T11:59:41.264Z,22.13
2022-11-28T12:02:27.565Z,25.67
2022-11-28T12:05:02.495Z,23.17
2022-11-28T12:07:33.669Z,25.02
2022-11-28T12:10:04.190Z,21.52
2022-11-28T12:12:30.858Z,27.58
2022-11-28T12:14:54.128Z,26.23
2022-11-28T12:17:58.291Z,27.30
2022-11-28T12:20:37.750Z,21.92
2022-11-28T12:23:17.681Z,24.88
2022-11-28T12:25:50.171Z,22.20
2022-11-28T12:28:23.786Z,31.58
2022-11-28T12:31:00.117Z,20.30
2022-11-28T12:33:40.984Z,18.80
2022-11-28T12:36:18.123Z,23.35
2022-11-28T12:39:01.607Z,22.98
2022-11-28T12:42:28.754Z,21.50
2022-11-28T12:45:20.553Z,22.10
2022-11-28T12:47:55.071Z,23.25
2022-11-28T12:50:33.296Z,19.67
2022-11-28T12:53:14.367Z,22.35
2022-11-28T12:55:47.996Z,21.02
2022-11-28T12:58:22.271Z,20.42
2022-11-28T13:00:55.743Z,16.40
2022-11-28T13:03:36.309Z,17.52
2022-11-28T13:06:15.591Z,21.95
2022-11-28T13:08:59.584Z,16.98
2022-11-28T13:11:40.066Z,15.70
2022-11-28T13:14:11.612Z,18.50
2022-11-28T13:16:44.385Z,18.65
2022-11-28T13:19:19.342Z,23.58
2022-11-28T13:21:50.833Z,18.55
2022-11-28T13:24:26.300Z,21.70
2022-11-28T13:26:58.947Z,22.17
2022-11-28T13:29:33.146Z,20.63
2022-11-28T13:32:06.018Z,21.60
2022-11-28T13:34:31.368Z,19.63
2022-11-28T13:39:54.049Z,14.43
2022-11-28T13:45:28.372Z,17.85
2022-11-28T13:47:55.686Z,22.17
2022-11-28T13:50:42.440Z,23.58
2022-11-28T13:53:23.346Z,18.88
2022-11-28T13:55:50.217Z,20.60
2022-11-28T13:58:22.313Z,16.05
2022-11-28T14:01:07.533Z,18.45
2022-11-28T14:03:33.908Z,19.20
2022-11-28T14:06:01.627Z,17.52
2022-11-28T14:08:31.230Z,27.25
2022-11-28T14:11:37.797Z,22.05
2022-11-28T14:14:26.708Z,23.05
2022-11-28T14:17:10.090Z,22.77
2022-11-28T14:19:53.762Z,19.67
2022-11-28T14:22:33.831Z,18.42
2022-11-28T14:25:04.542Z,17.55
2022-11-28T14:27:34.344Z,19.23
2022-11-28T14:29:59.404Z,19.67
2022-11-28T14:32:34.501Z,20.92
2022-11-28T14:34:57.827Z,18.52
2022-11-28T14:37:58.931Z,20.30
2022-11-28T14:41:05.785Z,19.45
2022-11-28T14:43:31.594Z,17.23
2022-11-28T14:46:32.394Z,27.73
2022-11-28T14:49:20.314Z,27.17
2022-11-28T14:52:41.991Z,20.00
2022-11-28T14:55:18.975Z,31.80
2022-11-28T14:57:56.616Z,28.48
2022-11-28T15:00:27.798Z,29.27
2022-11-28T15:03:07.263Z,22.50
2022-11-28T15:05:41.424Z,29.63
2022-11-28T15:08:54.651Z,29.42
2022-11-28T15:11:35.146Z,30.63
2022-11-28T15:14:21.063Z,37.10
2022-11-28T15:16:50.876Z,34.35
2022-11-28T15:19:23.571Z,50.85
2022-11-28T15:21:49.466Z,40.97
2022-11-28T15:24:30.871Z,40.80
2022-11-28T15:26:57.617Z,37.30
2022-11-28T15:29:24.035Z,46.40
2022-11-28T15:31:52.073Z,39.53
2022-11-28T15:34:25.421Z,37.15
2022-11-28T15:36:52.928Z,41.85
2022-11-28T15:39:26.944Z,40.35
2022-11-28T15:41:50.341Z,41.63
2022-11-28T15:44:17.429Z,34.50
2022-11-28T15:46:40.888Z,27.65
2022-11-28T15:49:07.185Z,39.08
2022-11-28T15:51:34.196Z,47.65
2022-11-28T15:53:58.164Z,36.60
2022-11-28T15:56:21.592Z,36.00
2022-11-28T15:58:47.702Z,37.03
2022-11-28T16:01:17.849Z,36.83
2022-11-28T16:03:50.004Z,39.00
2022-11-28T16:06:15.141Z,36.20
2022-11-28T16:08:41.468Z,28.00
2022-11-28T16:11:07.589Z,24.83
2022-11-28T16:13:32.385Z,43.20
2022-11-28T16:15:58.419Z,26.00
2022-11-28T16:18:21.793Z,26.65
2022-11-28T16:20:45.459Z,26.15
2022-11-28T16:23:21.015Z,33.33
2022-11-28T16:25:44.686Z,26.17
2022-11-28T16:28:34.032Z,37.60
2022-11-28T16:30:57.423Z,35.20
2022-11-28T16:33:41.891Z,39.85
2022-11-28T16:36:19.737Z,38.40
2022-11-28T16:38:45.433Z,42.00
2022-11-28T16:41:17.983Z,30.45
2022-11-28T16:43:41.952Z,33.28
2022-11-28T16:46:08.972Z,38.15
2022-11-28T16:48:36.360Z,34.33
2022-11-28T16:51:36.514Z,39.10
2022-11-28T16:54:02.151Z,32.78
2022-11-28T16:56:27.388Z,30.40
2022-11-28T16:58:52.811Z,39.63
2022-11-28T17:01:16.132Z,28.88
2022-11-28T17:03:49.842Z,34.90
2022-11-28T17:06:28.587Z,30.75
2022-11-28T17:08:52.117Z,33.20
2022-11-28T17:11:19.960Z,31.25
2022-11-28T17:13:43.767Z,30.50
2022-11-28T17:16:09.879Z,41.13
2022-11-28T17:18:33.201Z,28.33
2022-11-28T17:20:56.489Z,41.15
2022-11-28T17:23:24.608Z,35.92
2022-11-28T17:25:47.946Z,30.95
2022-11-28T17:28:17.337Z,34.45
2022-11-28T17:30:44.201Z,37.78
2022-11-28T17:33:07.466Z,34.72
2022-11-28T17:35:35.005Z,31.30
2022-11-28T17:37:58.236Z,31.98
2022-11-28T17:40:36.782Z,39.53
2022-11-28T17:43:01.105Z,40.17
2022-11-28T17:45:26.873Z,40.97
2022-11-28T17:47:50.470Z,47.60
2022-11-28T17:50:13.902Z,49.15
2022-11-28T17:52:37.519Z,30.05
2022-11-28T17:55:06.942Z,39.95
2022-11-28T17:57:31.502Z,35.05
2022-11-28T17:59:54.822Z,39.35
2022-11-28T18:02:20.906Z,31.17
2022-11-28T18:04:44.301Z,36.90
2022-11-28T18:07:08.367Z,33.00
2022-11-28T18:09:31.606Z,38.55
2022-11-28T18:11:54.865Z,25.27
2022-11-28T18:14:19.816Z,28.60
2022-11-28T18:16:44.159Z,42.80
2022-11-28T18:19:08.941Z,26.33
2022-11-28T18:21:32.623Z,34.35
2022-11-28T18:23:55.947Z,23.00
2022-11-28T18:26:22.889Z,35.85
2022-11-28T18:28:46.779Z,28.50
2022-11-28T18:31:11.678Z,24.65
2022-11-28T18:33:35.763Z,26.17
2022-11-28T18:36:10.854Z,30.75
2022-11-28T18:38:35.117Z,29.77
2022-11-28T18:40:58.360Z,33.55
2022-11-28T18:43:21.626Z,33.42
2022-11-28T18:45:44.920Z,24.70
2022-11-28T18:48:08.670Z,33.70
2022-11-28T18:50:32.137Z,25.58
2022-11-28T18:52:56.878Z,36.80
2022-11-28T18:55:20.252Z,29.45
2022-11-28T18:57:43.713Z,37.33
2022-11-28T19:00:08.978Z,34.22
2022-11-28T19:02:33.482Z,33.15
2022-11-28T19:04:57.486Z,32.10
2022-11-28T19:07:21.047Z,30.00
2022-11-28T19:09:46.536Z,26.63
2022-11-28T19:12:10.303Z,33.47
2022-11-28T19:14:33.567Z,38.60
2022-11-28T19:16:56.981Z,27.30
2022-11-28T19:19:20.338Z,26.77
2022-11-28T19:21:45.323Z,36.10
2022-11-28T19:24:11.818Z,28.42
2022-11-28T19:26:38.024Z,39.58
2022-11-28T19:29:02.196Z,35.90
2022-11-28T19:31:28.195Z,41.67
2022-11-28T19:34:00.887Z,35.40
2022-11-28T19:36:27.173Z,27.63
2022-11-28T19:38:50.726Z,34.08
2022-11-28T19:41:16.963Z,36.92
2022-11-28T19:43:42.262Z,34.55
2022-11-28T19:46:06.730Z,35.25
2022-11-28T19:48:32.330Z,41.83
2022-11-28T19:50:57.002Z,34.58
2022-11-28T19:53:21.153Z,32.13
2022-11-28T19:55:45.407Z,41.35
2022-11-28T19:58:08.828Z,39.58
2022-11-28T20:00:33.489Z,39.13
2022-11-28T20:02:56.919Z,43.10
2022-11-28T20:05:20.254Z,42.38
2022-11-28T20:07:44.133Z,44.88
2022-11-28T20:10:10.409Z,47.40
2022-11-28T20:12:34.548Z,43.60
2022-11-28T20:14:57.835Z,40.70
2022-11-28T20:17:22.735Z,44.78
2022-11-28T20:19:46.413Z,38.97
2022-11-28T20:22:09.852Z,40.60
2022-11-28T20:24:33.154Z,42.35
2022-11-28T20:26:57.775Z,47.83
2022-11-28T20:29:26.583Z,46.63
2022-11-28T20:31:50.077Z,46.10
2022-11-28T20:34:17.053Z,43.75
2022-11-28T20:36:40.996Z,42.70
2022-11-28T20:39:06.082Z,44.22
2022-11-28T20:41:31.361Z,48.53
2022-11-28T20:43:54.852Z,46.10
2022-11-28T20:46:20.429Z,44.25
2022-11-28T20:48:44.060Z,49.17
2022-11-28T20:51:11.857Z,46.65
2022-11-28T20:53:36.560Z,35.75
2022-11-28T20:56:01.883Z,42.42
2022-11-28T20:58:25.147Z,43.45
2022-11-28T21:00:48.534Z,42.75
2022-11-28T21:03:11.813Z,40.40
2022-11-28T21:05:36.532Z,40.38
2022-11-28T21:08:01.235Z,41.63
2022-11-28T21:10:24.814Z,45.10
2022-11-28T21:12:48.080Z,37.20
2022-11-28T21:15:11.882Z,37.55
2022-11-28T21:17:35.220Z,40.75
2022-11-28T21:19:58.435Z,32.17
2022-11-28T21:22:21.777Z,46.35
2022-11-28T21:24:49.333Z,48.47
2022-11-28T21:27:12.774Z,46.22
2022-11-28T21:29:36.050Z,44.90
2022-11-28T21:32:00.000Z,49.83
2022-11-28T21:34:23.448Z,45.85
2022-11-28T21:36:47.028Z,47.10
2022-11-28T21:39:14.564Z,43.92
2022-11-28T21:41:39.171Z,49.47
2022-11-28T21:44:02.614Z,38.42
2022-11-28T21:46:27.068Z,49.33
2022-11-28T21:48:50.339Z,49.00
2022-11-28T21:51:18.164Z,39.15
2022-11-28T21:53:41.450Z,45.13
2022-11-28T21:56:06.650Z,53.53
2022-11-28T21:58:31.663Z,48.03
2022-11-28T22:00:59.056Z,54.20
2022-11-28T22:03:23.004Z,53.85
2022-11-28T22:05:46.377Z,52.92
2022-11-28T22:08:10.740Z,53.22
2022-11-28T22:10:34.057Z,48.90
2022-11-28T22:12:57.362Z,56.67
2022-11-28T22:15:22.792Z,49.05
2022-11-28T22:17:46.014Z,49.25
2022-11-28T22:20:11.540Z,55.38
2022-11-28T22:22:34.837Z,55.65
2022-11-28T22:24:58.851Z,39.75
2022-11-28T22:27:22.938Z,54.75
2022-11-28T22:29:46.611Z,41.42
2022-11-28T22:32:11.701Z,47.83
2022-11-28T22:34:39.659Z,50.92
2022-11-28T22:37:03.728Z,48.53
2022-11-28T22:39:27.346Z,57.95
2022-11-28T22:41:50.583Z,53.35
2022-11-28T22:44:14.025Z,55.88
2022-11-28T22:46:37.304Z,54.53
2022-11-28T22:49:03.078Z,48.33
2022-11-28T22:51:28.781Z,56.05
2022-11-28T22:53:54.314Z,56.55
2022-11-28T22:56:17.610Z,57.58
2022-11-28T22:58:43.683Z,45.75
2022-11-28T23:01:08.129Z,51.00
2022-11-28T23:03:31.489Z,53.35
2022-11-28T23:05:56.179Z,67.55
2022-11-28T23:08:19.545Z,45.38
2022-11-28T23:10:43.143Z,48.63
2022-11-28T23:13:06.479Z,60.17
2022-11-28T23:15:29.732Z,60.22
2022-11-28T23:17:52.968Z,64.05
2022-11-28T23:20:16.298Z,50.95
2022-11-28T23:22:40.918Z,58.53
2022-11-28T23:25:04.479Z,59.38
2022-11-28T23:27:29.982Z,58.15
2022-11-28T23:29:53.804Z,45.22
2022-11-28T23:32:17.209Z,58.25
2022-11-28T23:34:41.003Z,58.13
2022-11-28T23:37:04.480Z,57.08
2022-11-28T23:39:29.176Z,50.67
2022-11-28T23:42:00.019Z,56.60
2022-11-28T23:44:23.301Z,55.80
2022-11-28T23:46:47.100Z,66.93
2022-11-28T23:49:10.837Z,61.10
2022-11-28T23:51:34.318Z,61.95
2022-11-28T23:53:57.749Z,66.30
2022-11-28T23:56:24.436Z,69.20
2022-11-28T23:58:47.979Z,60.75
